Time;durP1;ratioP1;P1;durP2;ratioP2;P2;SDS_P1;SDS_P2;PMS_P1;PMS_P2;Temp;Humidity;BMP_temperature;BMP_pressure;BME280_temperature;BME280_humidity;BME280_pressure;Samples;Min_cycle;Max_cycle;Signal;HPM_P1;HPM_P2
2023/05/22 00:00:43;;;;;;;11.55;8.23;;;435.30;2355.20;;;;;;5055144;28;20032;-82
2023/05/22 00:03:09;;;;;;;15.32;8.18;;;435.30;2355.20;;;;;;5056530;28;20104;-82
2023/05/22 00:05:39;;;;;;;13.23;9.07;;;435.50;2355.20;;;;;;5055426;28;20106;-82
2023/05/22 00:08:11;;;;;;;11.77;8.45;;;435.50;2355.20;;;;;;5056598;28;20037;-83
2023/05/22 00:10:37;;;;;;;14.52;10.13;;;435.60;2355.20;;;;;;5055508;28;20123;-81
2023/05/22 00:13:03;;;;;;;21.38;11.77;;;435.60;2355.20;;;;;;5056580;28;20106;-84
2023/05/22 00:15:29;;;;;;;15.75;9.65;;;410.50;2355.20;;;;;;5054490;28;20032;-83
2023/05/22 00:17:55;;;;;;;11.80;8.23;;;410.30;2355.20;;;;;;5056559;28;20037;-81
2023/05/22 00:20:22;;;;;;;12.85;7.28;;;410.20;2355.20;;;;;;5056038;28;20021;-81
2023/05/22 00:22:48;;;;;;;10.63;7.82;;;410.00;2355.20;;;;;;5054740;28;20147;-80
2023/05/22 00:25:17;;;;;;;11.60;7.50;;;409.90;2355.20;;;;;;5056144;28;20017;-80
2023/05/22 00:27:43;;;;;;;9.75;7.15;;;410.20;2355.20;;;;;;5054968;28;20068;-80
2023/05/22 00:30:09;;;;;;;10.55;7.68;;;410.20;2355.20;;;;;;5055795;28;20383;-80
2023/05/22 00:32:35;;;;;;;9.60;7.20;;;410.00;2355.20;;;;;;5056180;28;20108;-80
2023/05/22 00:35:00;;;;;;;9.73;7.32;;;410.00;2355.20;;;;;;5054740;28;20061;-80
2023/05/22 00:37:26;;;;;;;11.13;7.90;;;410.00;2355.20;;;;;;5054617;28;20033;-82
2023/05/22 00:39:52;;;;;;;10.68;8.15;;;409.80;2355.20;;;;;;5054434;28;20142;-80
2023/05/22 00:42:18;;;;;;;11.43;6.65;;;409.70;2355.20;;;;;;5055573;28;20028;-80
2023/05/22 00:44:44;;;;;;;13.45;6.97;;;410.00;2355.20;;;;;;5056038;28;20119;-81
2023/05/22 00:47:10;;;;;;;10.30;7.32;;;410.00;2355.20;;;;;;5047827;28;20037;-81
2023/05/22 00:49:36;;;;;;;11.05;7.63;;;410.00;2355.20;;;;;;5033388;28;20032;-81
2023/05/22 00:52:02;;;;;;;10.95;7.30;;;410.10;2355.20;;;;;;5035487;28;20029;-81
2023/05/22 00:54:30;;;;;;;14.35;8.73;;;410.20;2355.20;;;;;;5067561;28;20135;-81
2023/05/22 00:56:56;;;;;;;9.85;8.13;;;410.20;2355.20;;;;;;5067076;28;20554;-82
2023/05/22 00:59:22;;;;;;;10.20;8.10;;;410.20;2355.20;;;;;;5067766;28;20379;-80
2023/05/22 01:01:48;;;;;;;11.82;8.43;;;410.00;2355.20;;;;;;5034288;28;20025;-81
2023/05/22 01:04:17;;;;;;;10.77;7.53;;;410.00;2355.20;;;;;;5034004;28;20029;-80
2023/05/22 01:06:46;;;;;;;11.98;8.27;;;409.80;2355.20;;;;;;5035441;28;20032;-80
2023/05/22 01:09:13;;;;;;;10.27;7.95;;;409.80;2355.20;;;;;;5034095;28;20030;-80
2023/05/22 01:12:00;;;;;;;11.00;7.90;;;409.80;2355.20;;;;;;5035391;28;20032;-80
2023/05/22 01:14:47;;;;;;;11.02;8.30;;;409.70;2355.20;;;;;;5035339;28;20128;-81
2023/05/22 01:17:39;;;;;;;11.45;8.02;;;409.70;2355.20;;;;;;5033767;28;20107;-81
2023/05/22 01:20:29;;;;;;;16.02;7.95;;;409.80;2355.20;;;;;;5034112;28;20030;-80
2023/05/22 01:23:07;;;;;;;13.70;8.63;;;409.70;2355.20;;;;;;5034989;28;20483;-80
2023/05/22 01:26:09;;;;;;;12.23;7.82;;;409.70;2355.20;;;;;;5033033;28;20036;-80
2023/05/22 01:29:05;;;;;;;13.45;8.32;;;409.70;2355.20;;;;;;5034890;28;20033;-79
2023/05/22 01:31:33;;;;;;;10.30;7.57;;;409.80;2355.20;;;;;;5034821;28;20030;-77
2023/05/22 01:34:01;;;;;;;17.02;8.68;;;409.70;2355.20;;;;;;5034841;28;20024;-77
2023/05/22 01:36:31;;;;;;;14.95;8.43;;;384.60;2329.60;;;;;;5033719;28;20033;-78
2023/05/22 01:39:00;;;;;;;19.63;9.13;;;384.80;2329.60;;;;;;5033304;28;20029;-78
2023/05/22 01:41:28;;;;;;;14.93;8.18;;;384.60;2329.60;;;;;;5033577;28;20465;-77
2023/05/22 01:43:54;;;;;;;17.00;9.25;;;384.70;2329.60;;;;;;5033377;28;20029;-78
2023/05/22 01:46:19;;;;;;;11.40;8.40;;;384.90;2329.60;;;;;;5033861;28;20065;-78
2023/05/22 01:48:45;;;;;;;12.85;8.68;;;384.90;2329.60;;;;;;5052307;28;20029;-79
2023/05/22 01:51:19;;;;;;;10.68;8.75;;;384.70;2329.60;;;;;;5054557;28;20099;-79
2023/05/22 01:53:58;;;;;;;14.00;8.73;;;384.70;2329.60;;;;;;5053109;28;20422;-79
2023/05/22 01:56:42;;;;;;;14.35;9.27;;;384.80;2329.60;;;;;;5053161;28;20052;-77
2023/05/22 01:59:31;;;;;;;12.07;7.35;;;384.80;2329.60;;;;;;5053201;28;20541;-78
2023/05/22 02:02:03;;;;;;;10.38;7.05;;;384.70;2329.60;;;;;;5053076;28;20025;-80
2023/05/22 02:04:30;;;;;;;14.00;7.90;;;384.70;2329.60;;;;;;5053116;28;20413;-79
2023/05/22 02:06:59;;;;;;;10.25;7.78;;;384.90;2329.60;;;;;;5052920;28;20079;-77
2023/05/22 02:09:29;;;;;;;14.18;7.95;;;384.70;2329.60;;;;;;5053026;28;20437;-77
2023/05/22 02:11:59;;;;;;;10.20;7.90;;;384.70;2329.60;;;;;;5053032;28;20029;-78
2023/05/22 02:14:26;;;;;;;11.70;8.25;;;384.80;2329.60;;;;;;5054088;28;20082;-77
2023/05/22 02:16:52;;;;;;;9.75;8.20;;;384.40;2329.60;;;;;;5041572;28;20045;-79
2023/05/22 02:19:18;;;;;;;10.52;8.27;;;384.40;2329.60;;;;;;5032636;28;20389;-78
2023/05/22 02:21:44;;;;;;;10.82;7.95;;;384.40;2329.60;;;;;;5032596;28;20021;-79
2023/05/22 02:24:10;;;;;;;10.73;7.32;;;384.50;2329.60;;;;;;5032949;28;20021;-78
2023/05/22 02:26:36;;;;;;;12.00;7.80;;;384.60;2329.60;;;;;;5032725;28;20458;-77
2023/05/22 02:29:02;;;;;;;11.30;7.70;;;384.50;2329.60;;;;;;5032484;28;20051;-77
2023/05/22 02:31:28;;;;;;;10.18;7.90;;;384.50;2329.60;;;;;;5032881;28;20025;-81
2023/05/22 02:33:55;;;;;;;11.43;7.38;;;384.40;2329.60;;;;;;5033949;28;20032;-79
2023/05/22 02:36:21;;;;;;;14.32;7.63;;;384.30;2329.60;;;;;;5032317;28;20128;-78
2023/05/22 02:38:47;;;;;;;10.77;7.88;;;384.30;2329.60;;;;;;5031185;28;20025;-78
2023/05/22 02:41:13;;;;;;;13.02;7.20;;;384.20;2329.60;;;;;;5032906;28;20382;-78
2023/05/22 02:43:39;;;;;;;11.75;7.05;;;384.30;2329.60;;;;;;5032459;28;20033;-79
2023/05/22 02:46:04;;;;;;;11.98;7.80;;;384.10;2329.60;;;;;;5037428;28;20032;-79
2023/05/22 02:48:30;;;;;;;10.70;7.47;;;384.20;2329.60;;;;;;5051655;28;20441;-80
2023/05/22 02:50:56;;;;;;;15.10;8.50;;;384.10;2329.60;;;;;;5053578;28;20036;-80
2023/05/22 02:53:22;;;;;;;12.48;6.90;;;384.10;2329.60;;;;;;5052023;28;20059;-78
2023/05/22 02:55:48;;;;;;;9.10;7.28;;;384.00;2329.60;;;;;;5052188;28;20470;-78
2023/05/22 02:58:16;;;;;;;14.35;8.65;;;384.10;2329.60;;;;;;5053193;28;20098;-79
2023/05/22 03:00:42;;;;;;;12.35;7.93;;;384.10;2329.60;;;;;;5052013;28;20065;-79
2023/05/22 03:03:08;;;;;;;10.73;7.95;;;384.20;2329.60;;;;;;5053526;28;20060;-79
2023/05/22 03:05:33;;;;;;;14.00;8.23;;;384.00;2329.60;;;;;;5052170;28;20047;-78
2023/05/22 03:07:59;;;;;;;12.93;7.00;;;359.30;2329.60;;;;;;5052038;28;20036;-77
2023/05/22 03:10:25;;;;;;;10.15;8.02;;;359.30;2329.60;;;;;;5052180;28;20470;-78
2023/05/22 03:12:51;;;;;;;11.30;7.28;;;359.20;2329.60;;;;;;5052083;28;20025;-78
2023/05/22 03:15:18;;;;;;;13.27;7.68;;;359.30;2329.60;;;;;;5053585;28;20021;-79
2023/05/22 03:17:44;;;;;;;11.50;7.97;;;359.30;2329.60;;;;;;5052228;28;20057;-78
2023/05/22 03:20:15;;;;;;;10.02;7.43;;;384.00;2329.60;;;;;;5051767;28;20109;-80
2023/05/22 03:22:47;;;;;;;12.73;7.65;;;384.00;2329.60;;;;;;5052241;28;20081;-80
2023/05/22 03:25:12;;;;;;;13.73;8.15;;;359.20;2329.60;;;;;;5054031;28;20100;-79
2023/05/22 03:27:41;;;;;;;11.48;7.90;;;359.20;2329.60;;;;;;5052727;28;20116;-80
2023/05/22 03:30:08;;;;;;;13.63;8.13;;;359.30;2329.60;;;;;;5053552;28;20033;-79
2023/05/22 03:32:37;;;;;;;12.48;8.00;;;359.30;2329.60;;;;;;5053386;28;20123;-79
2023/05/22 03:35:04;;;;;;;10.43;7.32;;;359.30;2329.60;;;;;;5052664;28;20444;-78
2023/05/22 03:37:30;;;;;;;9.60;7.75;;;359.30;2329.60;;;;;;5053364;28;20040;-80
2023/05/22 03:39:55;;;;;;;10.02;7.53;;;359.30;2329.60;;;;;;5052879;28;20025;-80
2023/05/22 03:42:21;;;;;;;14.40;8.45;;;359.30;2329.60;;;;;;5051695;28;20036;-78
2023/05/22 03:44:48;;;;;;;12.48;7.55;;;359.20;2329.60;;;;;;5051974;28;20025;-80
2023/05/22 03:47:14;;;;;;;16.73;8.25;;;359.20;2329.60;;;;;;5051895;28;20032;-79
2023/05/22 03:49:40;;;;;;;11.27;7.68;;;359.20;2329.60;;;;;;5052899;28;20029;-80
2023/05/22 03:52:09;;;;;;;12.15;8.07;;;359.30;2329.60;;;;;;5056811;28;20029;-78
2023/05/22 03:54:35;;;;;;;8.20;6.90;;;359.10;2329.60;;;;;;5055349;28;20060;-78
2023/05/22 03:57:01;;;;;;;11.65;7.68;;;359.10;2329.60;;;;;;5055332;28;20505;-78
2023/05/22 03:59:27;;;;;;;11.55;7.60;;;358.90;2329.60;;;;;;5040203;28;20034;-78
2023/05/22 04:01:53;;;;;;;10.10;6.85;;;358.90;2329.60;;;;;;5035254;28;20056;-80
2023/05/22 04:04:19;;;;;;;11.73;8.65;;;359.00;2329.60;;;;;;5035577;28;20033;-78
2023/05/22 04:06:45;;;;;;;12.32;7.68;;;358.90;2329.60;;;;;;5035490;28;20033;-79
2023/05/22 04:09:11;;;;;;;12.02;7.60;;;359.00;2329.60;;;;;;5035161;28;20032;-80
2023/05/22 04:11:41;;;;;;;11.98;8.45;;;358.80;2329.60;;;;;;5036602;28;20104;-78
2023/05/22 04:14:07;;;;;;;10.57;7.45;;;358.70;2329.60;;;;;;5035182;28;20072;-80
2023/05/22 04:16:34;;;;;;;11.05;8.70;;;358.70;2329.60;;;;;;5034931;28;20029;-78
2023/05/22 04:19:03;;;;;;;10.77;7.78;;;358.80;2329.60;;;;;;5036245;28;20032;-79
2023/05/22 04:21:34;;;;;;;11.48;8.18;;;358.90;2329.60;;;;;;5036559;28;20100;-79
2023/05/22 04:24:05;;;;;;;14.00;9.27;;;358.80;2329.60;;;;;;5034734;28;20474;-79
2023/05/22 04:26:31;;;;;;;14.27;7.90;;;358.70;2329.60;;;;;;5035117;28;20064;-80
2023/05/22 04:28:57;;;;;;;13.55;8.05;;;358.50;2329.60;;;;;;5043383;28;20041;-78
2023/05/22 04:31:23;;;;;;;14.90;8.70;;;358.90;2329.60;;;;;;5054164;28;20025;-79
2023/05/22 04:33:49;;;;;;;13.30;9.10;;;358.90;2329.60;;;;;;5055955;28;20060;-81
2023/05/22 04:36:16;;;;;;;14.52;10.95;;;358.90;2329.60;;;;;;5054724;28;20390;-79
2023/05/22 04:38:43;;;;;;;12.48;9.27;;;358.90;2329.60;;;;;;5055688;28;20478;-79
2023/05/22 04:41:12;;;;;;;11.63;8.70;;;358.90;2329.60;;;;;;5055852;28;20021;-78
2023/05/22 04:43:38;;;;;;;13.45;9.45;;;359.00;2329.60;;;;;;5054423;28;20082;-79
2023/05/22 04:46:07;;;;;;;16.88;9.55;;;359.10;2329.60;;;;;;5054453;28;20390;-78
2023/05/22 04:48:33;;;;;;;14.45;10.13;;;359.10;2329.60;;;;;;5054787;28;20037;-78
2023/05/22 04:51:01;;;;;;;11.90;9.05;;;358.90;2329.60;;;;;;5054186;28;20085;-80
2023/05/22 04:53:29;;;;;;;17.88;9.40;;;358.90;2329.60;;;;;;5054520;28;20037;-79
2023/05/22 04:55:58;;;;;;;14.77;9.82;;;358.80;2329.60;;;;;;5055710;28;20017;-78
2023/05/22 04:58:27;;;;;;;12.13;8.73;;;359.00;2329.60;;;;;;5053797;28;20053;-79
2023/05/22 05:00:53;;;;;;;14.48;8.80;;;359.00;2329.60;;;;;;5054125;28;20083;-80
2023/05/22 05:03:21;;;;;;;11.48;8.48;;;359.00;2329.60;;;;;;5056175;28;20421;-79
2023/05/22 05:05:47;;;;;;;12.82;8.52;;;359.10;2329.60;;;;;;5055361;28;20025;-79
2023/05/22 05:08:13;;;;;;;18.77;9.45;;;359.10;2329.60;;;;;;5054388;28;20477;-80
2023/05/22 05:10:38;;;;;;;9.68;7.82;;;359.20;2329.60;;;;;;5054144;28;20064;-80
2023/05/22 05:13:04;;;;;;;9.75;7.90;;;359.20;2329.60;;;;;;5053595;28;20120;-79
2023/05/22 05:15:30;;;;;;;10.95;8.10;;;359.20;2329.60;;;;;;5054067;28;20032;-79
2023/05/22 05:17:56;;;;;;;10.77;8.07;;;359.20;2329.60;;;;;;5054985;28;20033;-79
2023/05/22 05:20:22;;;;;;;12.10;7.20;;;359.30;2329.60;;;;;;5053663;28;20036;-80
2023/05/22 05:22:47;;;;;;;11.85;7.18;;;384.00;2329.60;;;;;;5055149;28;20114;-80
2023/05/22 05:25:13;;;;;;;12.55;8.05;;;384.00;2329.60;;;;;;5054778;28;20021;-78
2023/05/22 05:27:39;;;;;;;10.00;7.97;;;384.00;2329.60;;;;;;5053366;28;20029;-79
2023/05/22 05:30:05;;;;;;;9.52;7.53;;;384.10;2329.60;;;;;;5053783;28;20063;-78
2023/05/22 05:32:31;;;;;;;11.30;8.05;;;384.20;2329.60;;;;;;5054950;28;20051;-80
2023/05/22 05:34:57;;;;;;;12.48;7.68;;;384.30;2329.60;;;;;;5054569;28;20513;-79
2023/05/22 05:37:23;;;;;;;12.95;7.97;;;384.30;2329.60;;;;;;5053544;28;20029;-81
2023/05/22 05:39:49;;;;;;;12.43;7.80;;;384.30;2329.60;;;;;;5054404;28;20029;-80
2023/05/22 05:42:16;;;;;;;11.32;7.80;;;384.50;2329.60;;;;;;5053498;28;20351;-79
2023/05/22 05:44:42;;;;;;;11.63;8.57;;;384.70;2329.60;;;;;;5053368;28;20029;-80
2023/05/22 05:47:08;;;;;;;13.82;7.70;;;384.60;2329.60;;;;;;5053981;28;20039;-80
2023/05/22 05:49:34;;;;;;;11.18;7.97;;;384.90;2329.60;;;;;;5053351;28;20039;-80
2023/05/22 05:51:59;;;;;;;20.38;9.10;;;384.90;2329.60;;;;;;5054374;28;20421;-78
2023/05/22 05:54:25;;;;;;;15.05;8.85;;;384.70;2329.60;;;;;;5052903;28;20033;-79
2023/05/22 05:56:51;;;;;;;12.27;8.75;;;409.80;2355.20;;;;;;5052830;28;20084;-78
2023/05/22 05:59:17;;;;;;;12.25;9.32;;;409.70;2355.20;;;;;;5053185;28;20056;-80
2023/05/22 06:01:44;;;;;;;14.73;8.90;;;409.60;2355.20;;;;;;5053908;28;20025;-81
2023/05/22 06:04:11;;;;;;;15.35;9.85;;;409.70;2355.20;;;;;;5053189;28;20029;-80
2023/05/22 06:06:38;;;;;;;15.85;8.65;;;409.80;2355.20;;;;;;5053893;28;20025;-79
2023/05/22 06:09:08;;;;;;;15.35;9.13;;;409.80;2355.20;;;;;;5052658;28;20029;-80
2023/05/22 06:11:35;;;;;;;11.68;8.27;;;410.00;2355.20;;;;;;5052600;28;20463;-79
2023/05/22 06:14:02;;;;;;;16.02;7.70;;;410.00;2355.20;;;;;;5054016;28;20028;-79
2023/05/22 06:16:28;;;;;;;13.30;8.20;;;410.30;2355.20;;;;;;5052718;28;20029;-79
2023/05/22 06:18:55;;;;;;;11.77;7.60;;;410.30;2355.20;;;;;;5052877;28;20025;-78
2023/05/22 06:21:23;;;;;;;12.98;7.78;;;410.50;2355.20;;;;;;5052692;28;20487;-81
2023/05/22 06:23:49;;;;;;;10.57;7.43;;;435.20;2355.20;;;;;;5052441;28;20391;-78
2023/05/22 06:26:15;;;;;;;11.85;7.43;;;435.30;2355.20;;;;;;5052668;28;20033;-79
2023/05/22 06:28:42;;;;;;;14.93;7.07;;;435.50;2355.20;;;;;;5053789;28;20033;-81
2023/05/22 06:31:08;;;;;;;13.60;8.35;;;435.60;2355.20;;;;;;5053318;28;20021;-80
2023/05/22 06:33:35;;;;;;;10.25;7.40;;;435.80;2355.20;;;;;;5052647;28;20029;-79
2023/05/22 06:36:05;;;;;;;13.00;6.90;;;435.90;2355.20;;;;;;5052320;28;20123;-79
2023/05/22 06:38:31;;;;;;;14.18;7.35;;;436.00;2355.20;;;;;;5052703;28;20485;-80
2023/05/22 06:40:57;;;;;;;10.50;6.68;;;436.00;2355.20;;;;;;5052600;28;20028;-79
2023/05/22 06:43:23;;;;;;;13.57;8.05;;;436.10;2355.20;;;;;;5052227;28;20025;-78
2023/05/22 06:45:49;;;;;;;11.23;6.93;;;460.90;2380.80;;;;;;5052419;28;20453;-79
2023/05/22 06:48:15;;;;;;;8.23;6.10;;;461.10;2380.80;;;;;;5052251;28;20028;-81
2023/05/22 06:50:41;;;;;;;10.00;6.38;;;461.20;2380.80;;;;;;5053407;28;20481;-82
2023/05/22 06:53:07;;;;;;;10.90;6.65;;;461.40;2380.80;;;;;;5052621;28;20060;-80
2023/05/22 06:55:33;;;;;;;10.05;6.05;;;461.50;2380.80;;;;;;5052506;28;20481;-80
2023/05/22 06:57:58;;;;;;;14.85;6.18;;;461.60;2380.80;;;;;;5051953;28;20141;-81
2023/05/22 07:00:24;;;;;;;13.00;6.75;;;486.40;2380.80;;;;;;5053509;28;20071;-81
2023/05/22 07:02:50;;;;;;;8.38;6.05;;;486.50;2380.80;;;;;;5053404;28;20025;-81
2023/05/22 07:05:16;;;;;;;10.52;6.13;;;486.70;2380.80;;;;;;5051781;28;20393;-82
2023/05/22 07:07:42;;;;;;;8.15;5.20;;;486.80;2380.80;;;;;;5052239;28;20098;-80
2023/05/22 07:10:09;;;;;;;10.25;6.10;;;487.00;2380.80;;;;;;5052318;28;20028;-81
2023/05/22 07:12:35;;;;;;;11.65;6.10;;;487.00;2380.80;;;;;;5053209;28;20025;-81
2023/05/22 07:15:01;;;;;;;9.02;5.97;;;487.30;2380.80;;;;;;5052272;28;20037;-79
2023/05/22 07:17:27;;;;;;;9.25;5.95;;;487.10;2380.80;;;;;;5053663;28;20036;-79
2023/05/22 07:19:53;;;;;;;10.65;6.70;;;487.20;2380.80;;;;;;5051839;28;20029;-80
2023/05/22 07:22:19;;;;;;;14.07;5.95;;;512.00;2380.80;;;;;;5052066;28;20474;-80
2023/05/22 07:24:46;;;;;;;9.30;6.43;;;512.30;2380.80;;;;;;5055089;28;20025;-80
2023/05/22 07:27:12;;;;;;;10.20;6.05;;;512.50;2380.80;;;;;;5057174;28;20028;-79
2023/05/22 07:29:38;;;;;;;16.33;7.57;;;512.70;2380.80;;;;;;5057115;28;20033;-81
2023/05/22 07:32:04;;;;;;;7.50;5.45;;;512.90;2380.80;;;;;;5055726;28;20470;-79
2023/05/22 07:34:33;;;;;;;9.50;5.25;;;537.60;2406.40;;;;;;5055877;28;20025;-80
2023/05/22 07:37:00;;;;;;;10.40;4.80;;;537.70;2406.40;;;;;;5055820;28;20474;-81
2023/05/22 07:39:26;;;;;;;7.60;5.40;;;537.90;2406.40;;;;;;5056964;28;20021;-80
2023/05/22 07:41:53;;;;;;;6.28;5.40;;;538.00;2406.40;;;;;;5055902;28;20029;-79
2023/05/22 07:44:19;;;;;;;7.97;4.95;;;538.20;2406.40;;;;;;5055817;28;20385;-80
2023/05/22 07:46:44;;;;;;;8.50;5.28;;;538.40;2406.40;;;;;;5056625;28;20033;-81
2023/05/22 07:49:10;;;;;;;7.35;5.07;;;538.40;2406.40;;;;;;5057043;28;20021;-81
2023/05/22 07:51:36;;;;;;;10.68;4.95;;;538.50;2406.40;;;;;;5056656;28;20029;-80
2023/05/22 07:54:02;;;;;;;9.02;5.07;;;563.30;2432.00;;;;;;5055364;28;20029;-81
2023/05/22 07:56:28;;;;;;;9.38;5.10;;;563.40;2432.00;;;;;;5056595;28;20033;-79
2023/05/22 07:58:54;;;;;;;7.22;5.13;;;563.50;2432.00;;;;;;5057112;28;20114;-79
2023/05/22 08:01:20;;;;;;;10.48;4.53;;;563.80;2432.00;;;;;;5055050;28;20024;-80
2023/05/22 08:03:46;;;;;;;7.07;4.70;;;564.00;2432.00;;;;;;5055439;28;20104;-80
2023/05/22 08:06:12;;;;;;;9.55;4.20;;;588.80;2432.00;;;;;;5055224;28;20032;-79
2023/05/22 08:08:37;;;;;;;8.38;4.35;;;589.10;2406.40;;;;;;5056571;28;20029;-80
2023/05/22 08:11:03;;;;;;;8.45;5.03;;;589.20;2355.20;;;;;;5054861;28;20497;-81
2023/05/22 08:13:29;;;;;;;5.93;4.03;;;589.20;2355.20;;;;;;5055271;28;20029;-79
2023/05/22 08:15:55;;;;;;;8.82;4.55;;;589.20;2329.60;;;;;;5055664;28;20025;-81
2023/05/22 08:18:21;;;;;;;9.50;4.57;;;589.30;2252.80;;;;;;5056356;28;20036;-80
2023/05/22 08:20:47;;;;;;;8.40;4.65;;;589.30;2252.80;;;;;;5054786;28;20025;-80
2023/05/22 08:23:12;;;;;;;6.63;4.47;;;589.60;2227.20;;;;;;5054962;28;20028;-80
2023/05/22 08:25:38;;;;;;;7.72;4.30;;;589.60;2252.80;;;;;;5056204;28;20068;-80
2023/05/22 08:28:05;;;;;;;9.45;4.72;;;589.70;2227.20;;;;;;5054534;28;20078;-80
2023/05/22 08:30:31;;;;;;;8.00;4.15;;;614.40;2252.80;;;;;;5054899;28;20036;-79
2023/05/22 08:32:56;;;;;;;5.70;3.40;;;614.40;2227.20;;;;;;5056221;28;20025;-81
2023/05/22 08:35:22;;;;;;;7.47;4.18;;;614.50;2150.40;;;;;;5054793;28;20092;-79
2023/05/22 08:37:48;;;;;;;7.57;4.20;;;614.60;2176.00;;;;;;5054784;28;20028;-80
2023/05/22 08:40:14;;;;;;;6.72;4.50;;;614.80;2150.40;;;;;;5054610;28;20079;-79
2023/05/22 08:42:41;;;;;;;8.60;5.32;;;614.80;2124.80;;;;;;5054249;28;20035;-80
2023/05/22 08:45:07;;;;;;;7.85;4.57;;;614.80;2099.20;;;;;;5052079;28;20021;-80
2023/05/22 08:47:38;;;;;;;7.00;4.95;;;614.90;2099.20;;;;;;5053409;28;20037;-81
2023/05/22 08:50:04;;;;;;;6.85;4.18;;;615.10;2124.80;;;;;;5054154;28;20039;-79
2023/05/22 08:52:45;;;;;;;7.10;4.10;;;615.10;2124.80;;;;;;5054430;28;20120;-83
2023/05/22 08:55:11;;;;;;;9.15;4.35;;;615.10;2099.20;;;;;;5054529;28;20035;-82
2023/05/22 08:57:37;;;;;;;11.27;4.65;;;615.10;2124.80;;;;;;5053755;28;20140;-80
2023/05/22 09:00:04;;;;;;;9.27;4.00;;;615.10;2099.20;;;;;;5053741;28;20036;-82
2023/05/22 09:02:31;;;;;;;7.95;4.00;;;615.10;2048.00;;;;;;5053943;28;20394;-83
2023/05/22 09:04:57;;;;;;;7.88;3.92;;;615.10;2048.00;;;;;;5053727;28;20112;-81
2023/05/22 09:07:23;;;;;;;6.20;3.88;;;615.10;2099.20;;;;;;5053987;28;20468;-82
2023/05/22 09:09:49;;;;;;;7.35;4.32;;;615.10;2073.60;;;;;;5053571;28;20033;-82
2023/05/22 09:12:15;;;;;;;9.70;4.88;;;615.20;2073.60;;;;;;5055643;28;20102;-83
2023/05/22 09:14:42;;;;;;;6.20;4.15;;;640.00;2099.20;;;;;;5053944;28;20474;-80
2023/05/22 09:17:13;;;;;;;10.43;4.00;;;640.20;2073.60;;;;;;5054794;28;20154;-80
2023/05/22 09:19:43;;;;;;;6.35;4.20;;;640.20;2048.00;;;;;;5055079;28;20374;-80
2023/05/22 09:22:09;;;;;;;8.82;4.03;;;640.40;2048.00;;;;;;5053938;28;20029;-81
2023/05/22 09:24:43;;;;;;;7.07;3.47;;;640.40;2022.40;;;;;;5053360;28;20033;-81
2023/05/22 09:27:10;;;;;;;15.40;11.85;;;640.50;2022.40;;;;;;5055085;28;20116;-80
2023/05/22 09:29:50;;;;;;;20.90;16.13;;;640.50;2048.00;;;;;;5053700;28;20035;-80
2023/05/22 09:32:17;;;;;;;13.32;9.82;;;640.60;2022.40;;;;;;5053546;28;20555;-83
2023/05/22 09:34:43;;;;;;;15.90;9.23;;;640.50;1971.20;;;;;;5053560;28;20067;-82
2023/05/22 09:37:11;;;;;;;10.23;6.13;;;640.50;1996.80;;;;;;5053608;28;20470;-81
2023/05/22 09:39:44;;;;;;;6.65;5.00;;;640.40;2022.40;;;;;;5054556;28;20057;-82
2023/05/22 09:42:13;;;;;;;6.43;3.90;;;640.10;2022.40;;;;;;5053726;28;20040;-81
2023/05/22 09:44:41;;;;;;;5.97;3.90;;;640.10;2048.00;;;;;;5051872;28;20506;-82
2023/05/22 09:47:08;;;;;;;8.13;4.72;;;640.10;2048.00;;;;;;5052022;28;20098;-82
2023/05/22 09:49:42;;;;;;;9.68;5.20;;;640.10;2022.40;;;;;;5054511;28;20029;-81
2023/05/22 09:52:08;;;;;;;11.85;5.97;;;640.10;2022.40;;;;;;5052784;28;20025;-82
2023/05/22 09:54:37;;;;;;;10.57;6.65;;;640.10;2022.40;;;;;;5037825;28;20026;-82
2023/05/22 09:57:05;;;;;;;13.57;6.80;;;640.10;1971.20;;;;;;5034325;28;20050;-83
2023/05/22 09:59:33;;;;;;;12.63;5.63;;;640.20;1996.80;;;;;;5034372;28;20113;-81
2023/05/22 10:02:00;;;;;;;7.63;3.80;;;640.20;2022.40;;;;;;5053706;28;20527;-81
2023/05/22 10:04:30;;;;;;;12.98;5.65;;;640.20;2022.40;;;;;;5053075;28;20488;-82
2023/05/22 10:07:00;;;;;;;11.40;4.50;;;640.20;1996.80;;;;;;5052753;28;20033;-82
2023/05/22 10:09:32;;;;;;;10.13;5.20;;;640.40;1996.80;;;;;;5053123;28;20029;-81
2023/05/22 10:12:03;;;;;;;8.68;4.63;;;640.60;2022.40;;;;;;5053588;28;20029;-82
2023/05/22 10:14:29;;;;;;;10.32;4.70;;;640.90;1996.80;;;;;;5052648;28;20025;-80
2023/05/22 10:17:00;;;;;;;8.13;4.35;;;665.60;2048.00;;;;;;5050872;28;20029;-82
2023/05/22 10:19:28;;;;;;;7.30;4.25;;;665.90;1996.80;;;;;;5053080;28;20054;-80
2023/05/22 10:21:56;;;;;;;7.13;4.15;;;665.60;1996.80;;;;;;5052689;28;20037;-82
2023/05/22 10:24:23;;;;;;;9.93;4.07;;;666.00;1996.80;;;;;;5053003;28;20032;-81
2023/05/22 10:26:52;;;;;;;7.82;4.30;;;666.20;1996.80;;;;;;5052556;28;20036;-81
2023/05/22 10:29:22;;;;;;;8.40;3.97;;;666.30;1945.60;;;;;;5052671;28;20167;-82
2023/05/22 10:32:08;;;;;;;9.38;4.13;;;691.20;1894.40;;;;;;5054401;28;20021;-82
2023/05/22 10:34:44;;;;;;;9.65;4.40;;;691.30;1894.40;;;;;;5053765;28;20028;-81
2023/05/22 10:37:41;;;;;;;6.95;4.25;;;691.60;1894.40;;;;;;5053945;28;20036;-81
2023/05/22 10:40:12;;;;;;;8.18;4.15;;;691.80;1843.20;;;;;;5053943;28;20025;-81
2023/05/22 10:42:38;;;;;;;9.30;3.80;;;692.00;1843.20;;;;;;5053633;28;20021;-81
2023/05/22 10:45:09;;;;;;;8.63;3.75;;;692.10;1817.60;;;;;;5053610;28;20036;-82
2023/05/22 10:47:35;;;;;;;6.25;3.70;;;691.80;1843.20;;;;;;5051950;28;20141;-80
2023/05/22 10:50:08;;;;;;;6.97;3.58;;;691.50;1868.80;;;;;;5054195;28;20470;-83
2023/05/22 10:52:39;;;;;;;13.02;4.22;;;691.60;1868.80;;;;;;5052815;28;20022;-84
2023/05/22 10:55:09;;;;;;;9.50;6.40;;;692.10;1843.20;;;;;;5052127;28;20036;-82
2023/05/22 10:57:38;;;;;;;6.88;4.10;;;716.90;1843.20;;;;;;5053308;28;20056;-79
2023/05/22 11:00:11;;;;;;;6.78;3.65;;;717.20;1843.20;;;;;;5052030;28;20021;-79
2023/05/22 11:02:40;;;;;;;6.60;3.70;;;717.40;1817.60;;;;;;5053239;28;20049;-80
2023/05/22 11:05:19;;;;;;;5.47;4.05;;;717.70;1817.60;;;;;;5052375;28;20107;-79
2023/05/22 11:07:45;;;;;;;9.25;4.53;;;;;;;;;;5051889;28;20042;-80
2023/05/22 11:10:11;;;;;;;8.18;3.83;;;;;;;;;;5051917;28;20394;-81
2023/05/22 11:12:38;;;;;;;8.63;3.92;;;;;;;;;;5053425;28;20022;-78
2023/05/22 11:15:04;;;;;;;6.80;3.63;;;;;;;;;;5051984;28;20029;-81
2023/05/22 11:17:40;;;;;;;8.40;4.20;;;;;;;;;;5051960;28;20029;-80
2023/05/22 11:20:14;;;;;;;6.95;3.55;;;;;;;;;;5052295;28;20090;-81
2023/05/22 11:22:41;;;;;;;6.30;3.33;;;;;;;;;;5051980;28;20017;-82
2023/05/22 11:25:09;;;;;;;11.00;4.93;;;;;;;;;;5053392;28;20071;-83
2023/05/22 11:27:36;;;;;;;13.00;6.43;;;;;;;;;;5053510;28;20107;-82
2023/05/22 11:30:03;;;;;;;7.72;4.13;;;;;;;;;;5051826;28;20075;-81
2023/05/22 11:32:29;;;;;;;7.88;3.90;;;;;;;;;;5052235;28;20053;-82
2023/05/22 11:34:56;;;;;;;7.47;3.42;;;;;;;;;;5053135;28;20033;-82
2023/05/22 11:37:23;;;;;;;8.48;4.25;;;;;;;;;;5051991;28;20494;-81
2023/05/22 11:39:50;;;;;;;11.85;4.50;;;;;;;;;;5053759;28;20024;-81
2023/05/22 11:42:18;;;;;;;8.80;4.20;;;717.30;1817.60;;;;;;5054783;28;20025;-81
2023/05/22 11:44:43;;;;;;;8.95;4.13;;;717.10;1817.60;;;;;;5063654;28;20028;-81
2023/05/22 11:47:10;;;;;;;7.07;3.53;;;;;;;;;;5044248;28;20033;-82
2023/05/22 11:49:36;;;;;;;6.70;3.97;;;;;;;;;;5031497;28;20025;-81
2023/05/22 11:52:02;;;;;;;6.50;4.28;;;;;;;;;;5031773;28;20041;-81
2023/05/22 11:54:31;;;;;;;6.57;4.57;;;;;;;;;;5032036;28;20025;-82
2023/05/22 11:56:57;;;;;;;9.63;4.32;;;;;;;;;;5032777;28;20103;-78
2023/05/22 11:59:23;;;;;;;6.97;4.10;;;;;;;;;;5039938;28;20083;-79
2023/05/22 12:01:50;;;;;;;7.85;3.80;;;;;;;;;;5051540;28;20086;-78
2023/05/22 12:04:16;;;;;;;11.35;4.82;;;;;;;;;;5051396;28;20226;-79
2023/05/22 12:06:42;;;;;;;8.25;4.30;;;;;;;;;;5050691;28;20052;-78
2023/05/22 12:09:08;;;;;;;7.57;4.18;;;;;;;;;;5051514;28;20087;-77
2023/05/22 12:11:35;;;;;;;6.68;4.00;;;;;;;;;;5054777;28;20112;-78
2023/05/22 12:14:01;;;;;;;7.18;4.07;;;;;;;;;;5056206;28;20017;-77
2023/05/22 12:16:28;;;;;;;7.22;3.72;;;;;;;;;;5055013;28;20459;-77
2023/05/22 12:18:53;;;;;;;7.30;4.63;;;666.50;1920.00;;;;;;5054314;28;20021;-78
2023/05/22 12:21:20;;;;;;;7.38;3.55;;;666.30;1920.00;;;;;;5056172;28;20078;-79
2023/05/22 12:23:48;;;;;;;6.68;3.58;;;691.20;1920.00;;;;;;5054270;28;20033;-80
2023/05/22 12:26:14;;;;;;;7.07;3.80;;;691.70;1868.80;;;;;;5054024;28;20025;-78